Time;durP1;ratioP1;P1;durP2;ratioP2;P2;SDS_P1;SDS_P2;PMS_P1;PMS_P2;Temp;Humidity;BMP_temperature;BMP_pressure;BME280_temperature;BME280_humidity;BME280_pressure;Samples;Min_cycle;Max_cycle;Signal;HPM_P1;HPM_P2
2023/07/18 00:00:46;;;;;;;4.15;1.40;;;;;13.70;94785.00;;;;7395945;19;20144;-77
2023/07/18 00:03:20;;;;;;;4.82;1.50;;;;;13.70;94782.00;;;;7393556;19;20277;-76
2023/07/18 00:05:58;;;;;;;5.65;1.38;;;;;13.60;94776.00;;;;7394702;19;20214;-76
2023/07/18 00:08:32;;;;;;;1.98;1.25;;;;;13.60;94771.00;;;;7395280;19;20190;-76
2023/07/18 00:11:14;;;;;;;3.78;1.23;;;;;13.60;94779.00;;;;7394162;19;20592;-77
2023/07/18 00:13:43;;;;;;;2.22;1.40;;;;;13.50;94780.00;;;;7395667;19;20132;-77
2023/07/18 00:16:18;;;;;;;4.63;1.27;;;;;13.50;94771.00;;;;7395671;19;20152;-76
2023/07/18 00:18:47;;;;;;;3.70;1.42;;;;;13.60;94778.00;;;;7392641;19;20166;-75
2023/07/18 00:21:21;;;;;;;3.28;1.52;;;;;13.60;94784.00;;;;7394378;19;20200;-77
2023/07/18 00:23:50;;;;;;;1.23;1.02;;;;;13.70;94782.00;;;;7394788;19;20513;-76
2023/07/18 00:26:24;;;;;;;5.57;1.83;;;;;13.70;94790.00;;;;7395612;19;20697;-76
2023/07/18 00:28:58;;;;;;;4.57;1.25;;;;;13.70;94784.00;;;;7394561;19;20672;-75
2023/07/18 00:31:27;;;;;;;3.03;1.30;;;;;14.00;94776.00;;;;7394098;19;20148;-76
2023/07/18 00:34:02;;;;;;;2.00;1.20;;;;;13.60;94788.00;;;;7396632;19;20585;-77
2023/07/18 00:36:31;;;;;;;2.05;1.35;;;;;13.70;94780.00;;;;7404114;19;20621;-76
2023/07/18 00:39:08;;;;;;;3.53;1.45;;;;;13.60;94784.00;;;;7402661;19;20141;-76
2023/07/18 00:41:35;;;;;;;2.05;1.20;;;;;13.60;94775.00;;;;7401959;19;20639;-76
2023/07/18 00:44:10;;;;;;;2.20;1.25;;;;;13.60;94766.00;;;;7402469;19;20159;-76
2023/07/18 00:46:43;;;;;;;6.15;1.60;;;;;13.60;94765.00;;;;7399911;19;20153;-75
2023/07/18 00:49:18;;;;;;;3.15;1.30;;;;;13.80;94767.00;;;;7402697;19;20139;-78
2023/07/18 00:51:46;;;;;;;2.67;1.42;;;;;14.10;94762.00;;;;7400650;19;20201;-75
2023/07/18 00:54:21;;;;;;;1.63;1.17;;;;;14.00;94766.00;;;;7396328;19;20605;-75
2023/07/18 00:56:49;;;;;;;3.63;1.25;;;;;13.90;94766.00;;;;7403139;19;20136;-76
2023/07/18 00:59:24;;;;;;;4.18;1.40;;;;;13.80;94763.00;;;;7401639;19;20620;-75
2023/07/18 01:01:52;;;;;;;10.82;1.35;;;;;14.10;94755.00;;;;7401985;19;20133;-77
2023/07/18 01:04:20;;;;;;;2.33;1.30;;;;;13.80;94754.00;;;;7402128;19;20601;-77
2023/07/18 01:06:55;;;;;;;4.85;1.77;;;;;13.60;94749.00;;;;7400736;19;20153;-77
2023/07/18 01:09:38;;;;;;;5.15;1.88;;;;;13.50;94757.00;;;;7399432;19;20625;-76
2023/07/18 01:12:12;;;;;;;4.22;1.45;;;;;13.40;94759.00;;;;7400834;19;20207;-77
2023/07/18 01:14:49;;;;;;;2.80;1.23;;;;;13.40;94756.00;;;;7398621;19;20485;-76
2023/07/18 01:17:17;;;;;;;4.68;1.23;;;;;13.40;94740.00;;;;7399744;19;20141;-80
2023/07/18 01:19:51;;;;;;;2.80;0.93;;;;;13.30;94750.00;;;;7400983;19;20145;-77
2023/07/18 01:22:25;;;;;;;7.22;1.85;;;;;13.10;94746.00;;;;7401522;19;20133;-76
2023/07/18 01:25:01;;;;;;;3.85;1.45;;;;;13.20;94746.00;;;;7401235;19;20136;-76
2023/07/18 01:27:31;;;;;;;3.20;1.58;;;;;13.30;94736.00;;;;7401637;19;20164;-76
2023/07/18 01:30:06;;;;;;;1.73;1.20;;;;;13.30;94739.00;;;;7399363;19;20130;-75
2023/07/18 01:32:42;;;;;;;3.13;1.13;;;;;13.30;94735.00;;;;7400653;19;20601;-81
2023/07/18 01:35:19;;;;;;;1.83;1.27;;;;;13.40;94741.00;;;;7401626;19;20458;-81
2023/07/18 01:37:56;;;;;;;4.75;1.80;;;;;13.40;94741.00;;;;7397621;19;20145;-82
2023/07/18 01:40:24;;;;;;;2.75;1.30;;;;;13.40;94736.00;;;;7401511;19;20149;-82
2023/07/18 01:42:59;;;;;;;3.67;1.10;;;;;13.40;94740.00;;;;7401138;19;20132;-81
2023/07/18 01:45:32;;;;;;;4.95;1.40;;;;;13.40;94733.00;;;;7400512;19;20146;-82
2023/07/18 01:48:02;;;;;;;4.93;1.60;;;;;13.20;94732.00;;;;7401903;19;20608;-81
2023/07/18 01:50:35;;;;;;;3.00;1.45;;;;;13.20;94727.00;;;;7402738;19;20129;-82
2023/07/18 01:53:13;;;;;;;5.20;1.50;;;;;13.20;94729.00;;;;7400013;19;20140;-82
2023/07/18 01:55:48;;;;;;;5.85;1.50;;;;;13.20;94727.00;;;;7399814;19;20620;-80
2023/07/18 01:58:15;;;;;;;6.05;1.33;;;;;13.20;94726.00;;;;7402149;19;20192;-83
2023/07/18 02:00:51;;;;;;;6.40;1.30;;;;;13.10;94722.00;;;;7401436;19;20140;-83
2023/07/18 02:03:27;;;;;;;3.38;1.23;;;;;13.20;94717.00;;;;7400184;19;20175;-83
2023/07/18 02:06:01;;;;;;;7.38;1.50;;;;;13.10;94716.00;;;;7402970;19;20143;-81
2023/07/18 02:08:49;;;;;;;3.30;1.42;;;;;13.40;94719.00;;;;7399696;19;20523;-83
2023/07/18 02:11:28;;;;;;;2.70;1.50;;;;;13.50;94722.00;;;;7399397;19;20149;-80
2023/07/18 02:13:56;;;;;;;4.20;1.58;;;;;13.60;94711.00;;;;7398983;19;20137;-81
2023/07/18 02:16:33;;;;;;;4.47;1.42;;;;;13.50;94715.00;;;;7398954;19;20128;-81
2023/07/18 02:19:03;;;;;;;4.57;1.67;;;;;13.50;94720.00;;;;7401933;19;20133;-80
2023/07/18 02:21:40;;;;;;;4.72;1.67;;;;;13.50;94722.00;;;;7401931;19;20125;-82
2023/07/18 02:24:14;;;;;;;4.43;1.48;;;;;13.30;94715.00;;;;7399570;19;20152;-81
2023/07/18 02:26:48;;;;;;;2.72;1.27;;;;;13.30;94718.00;;;;7399903;19;20149;-81
2023/07/18 02:29:16;;;;;;;3.08;1.58;;;;;13.20;94726.00;;;;7399516;19;20589;-80
2023/07/18 02:31:57;;;;;;;2.75;1.30;;;;;13.20;94725.00;;;;7397990;19;20143;-81
2023/07/18 02:34:30;;;;;;;2.85;1.30;;;;;13.10;94719.00;;;;7399075;19;20614;-80
2023/07/18 02:37:05;;;;;;;2.33;1.20;;;;;13.10;94724.00;;;;7400540;19;20188;-82
2023/07/18 02:39:39;;;;;;;4.63;1.50;;;;;12.90;94731.00;;;;7398973;19;20153;-80
2023/07/18 02:42:06;;;;;;;3.30;1.30;;;;;12.80;94716.00;;;;7399432;19;20144;-80
2023/07/18 02:44:40;;;;;;;3.28;1.40;;;;;12.80;94709.00;;;;7398158;19;20227;-82
2023/07/18 02:47:10;;;;;;;5.80;1.42;;;;;12.70;94709.00;;;;7397911;19;20174;-83
2023/07/18 02:49:43;;;;;;;6.13;1.25;;;;;12.70;94719.00;;;;7402335;19;20125;-83
2023/07/18 02:52:11;;;;;;;3.33;1.38;;;;;12.60;94709.00;;;;7399038;19;20136;-83
2023/07/18 02:54:47;;;;;;;4.10;1.30;;;;;12.60;94710.00;;;;7399184;19;20212;-83
2023/07/18 02:57:23;;;;;;;2.63;1.13;;;;;12.60;94706.00;;;;7399122;19;20609;-83
2023/07/18 03:00:00;;;;;;;5.07;1.50;;;;;12.50;94705.00;;;;7398273;19;20735;-83
2023/07/18 03:02:34;;;;;;;2.75;1.52;;;;;12.60;94706.00;;;;7396722;19;20176;-81
2023/07/18 03:05:09;;;;;;;2.80;1.08;;;;;12.60;94704.00;;;;7400404;19;20525;-83
2023/07/18 03:07:38;;;;;;;4.68;1.42;;;;;12.60;94707.00;;;;7394786;19;20155;-81
2023/07/18 03:10:19;;;;;;;4.50;1.65;;;;;12.70;94710.00;;;;7395820;19;20645;-81
2023/07/18 03:13:00;;;;;;;4.90;2.90;;;;;12.70;94711.00;;;;7397251;19;20589;-81
2023/07/18 03:15:35;;;;;;;5.18;2.60;;;;;12.70;94706.00;;;;7398066;19;20125;-82
2023/07/18 03:18:03;;;;;;;10.30;1.65;;;;;12.80;94702.00;;;;7396306;19;20129;-81
2023/07/18 03:20:39;;;;;;;3.10;1.23;;;;;13.00;94709.00;;;;7399191;19;20129;-83
2023/07/18 03:23:07;;;;;;;3.88;1.33;;;;;13.00;94698.00;;;;7398396;19;20586;-81
2023/07/18 03:25:42;;;;;;;3.22;1.40;;;;;13.10;94695.00;;;;7399045;19;20706;-80
2023/07/18 03:28:09;;;;;;;3.70;1.17;;;;;13.20;94697.00;;;;7397532;19;20643;-81
2023/07/18 03:30:44;;;;;;;5.28;2.28;;;;;13.30;94700.00;;;;7396185;19;20131;-83
2023/07/18 03:33:19;;;;;;;6.88;1.65;;;;;13.20;94698.00;;;;7397124;19;20141;-82
2023/07/18 03:35:48;;;;;;;3.85;1.17;;;;;13.20;94695.00;;;;7396888;19;20481;-83
2023/07/18 03:38:16;;;;;;;2.78;1.48;;;;;13.20;94704.00;;;;7397305;19;20635;-81
2023/07/18 03:40:50;;;;;;;3.53;1.30;;;;;13.30;94693.00;;;;7398279;19;20129;-82
2023/07/18 03:43:18;;;;;;;5.18;1.70;;;;;13.30;94695.00;;;;7395029;19;20168;-82
2023/07/18 03:45:54;;;;;;;2.35;1.58;;;;;13.10;94691.00;;;;7394910;19;20153;-82
2023/07/18 03:48:22;;;;;;;1.77;1.30;;;;;13.10;94697.00;;;;7395456;19;20176;-82
2023/07/18 03:50:56;;;;;;;2.22;1.25;;;;;13.10;94693.00;;;;7396758;19;20196;-82
2023/07/18 03:53:24;;;;;;;3.83;1.40;;;;;13.10;94688.00;;;;7395733;19;20648;-77
2023/07/18 03:56:06;;;;;;;3.78;1.50;;;;;13.10;94681.00;;;;7394424;19;20148;-78
2023/07/18 03:58:41;;;;;;;4.57;1.52;;;;;13.20;94683.00;;;;7394901;19;20144;-77
2023/07/18 04:01:10;;;;;;;3.40;1.45;;;;;13.20;94684.00;;;;7393572;19;20480;-78
2023/07/18 04:03:46;;;;;;;2.40;1.50;;;;;13.10;94681.00;;;;7394095;19;20230;-78
2023/07/18 04:06:21;;;;;;;3.10;1.30;;;;;13.10;94680.00;;;;7394705;19;20222;-76
2023/07/18 04:08:55;;;;;;;5.38;1.38;;;;;13.10;94675.00;;;;7393139;19;20149;-76
2023/07/18 04:11:37;;;;;;;2.72;1.30;;;;;13.20;94671.00;;;;7396261;19;20159;-76
2023/07/18 04:14:07;;;;;;;1.52;1.20;;;;;13.30;94668.00;;;;7394075;19;20149;-77
2023/07/18 04:16:42;;;;;;;3.63;1.42;;;;;13.20;94669.00;;;;7394527;19;20619;-76
2023/07/18 04:19:18;;;;;;;3.25;1.40;;;;;13.30;94673.00;;;;7396510;19;20133;-76
2023/07/18 04:21:53;;;;;;;3.97;1.52;;;;;13.30;94671.00;;;;7391908;19;20144;-76
2023/07/18 04:24:27;;;;;;;8.05;1.38;;;;;13.40;94665.00;;;;7396273;19;20585;-76
2023/07/18 04:27:03;;;;;;;2.35;1.20;;;;;13.40;94669.00;;;;7395382;19;20141;-76
2023/07/18 04:29:32;;;;;;;3.92;1.50;;;;;13.60;94669.00;;;;7394704;19;20143;-77
2023/07/18 04:32:10;;;;;;;3.10;1.48;;;;;13.50;94656.00;;;;7395016;19;20144;-76
2023/07/18 04:34:38;;;;;;;3.53;1.48;;;;;13.60;94668.00;;;;7395397;19;20162;-76
2023/07/18 04:37:12;;;;;;;1.90;1.25;;;;;13.70;94664.00;;;;7393359;19;20600;-75
2023/07/18 04:39:46;;;;;;;1.98;1.60;;;;;13.90;94657.00;;;;7394425;19;20156;-77
2023/07/18 04:42:27;;;;;;;2.45;1.25;;;;;13.90;94667.00;;;;7394281;19;20153;-76
2023/07/18 04:44:57;;;;;;;2.20;1.17;;;;;14.00;94666.00;;;;7393409;19;20152;-77
2023/07/18 04:47:32;;;;;;;4.03;1.20;;;;;14.00;94660.00;;;;7394157;19;20129;-76
2023/07/18 04:50:10;;;;;;;2.78;1.45;;;;;14.10;94666.00;;;;7393446;19;20626;-77
2023/07/18 04:52:44;;;;;;;3.63;1.60;;;;;14.20;94660.00;;;;7393694;19;20204;-76
2023/07/18 04:55:20;;;;;;;2.85;1.42;;;;;14.40;94657.00;;;;7393027;19;20147;-76
2023/07/18 04:57:55;;;;;;;3.45;1.55;;;;;14.40;94654.00;;;;7393675;19;20472;-75
2023/07/18 05:00:24;;;;;;;4.88;1.60;;;;;14.50;94660.00;;;;7394214;19;20466;-76
2023/07/18 05:02:59;;;;;;;4.15;1.60;;;;;14.60;94657.00;;;;7391197;19;20748;-83
2023/07/18 05:05:28;;;;;;;5.85;1.33;;;;;14.70;94653.00;;;;7394366;19;20209;-82
2023/07/18 05:08:03;;;;;;;3.47;1.50;;;;;14.90;94651.00;;;;7395294;19;20200;-80
2023/07/18 05:10:32;;;;;;;6.97;1.65;;;;;15.00;94649.00;;;;7395183;19;20204;-82
2023/07/18 05:13:12;;;;;;;3.75;1.55;;;;;15.10;94638.00;;;;7395503;19;20148;-83
2023/07/18 05:15:46;;;;;;;4.13;1.60;;;;;15.30;94642.00;;;;7394639;19;20212;-81
2023/07/18 05:18:20;;;;;;;4.80;1.40;;;;;15.30;94647.00;;;;7394683;19;20215;-80
2023/07/18 05:20:59;;;;;;;2.67;1.40;;;;;15.60;94646.00;;;;7395956;19;20132;-82
2023/07/18 05:23:33;;;;;;;1.70;1.25;;;;;15.80;94642.00;;;;7402451;19;20141;-82
2023/07/18 05:26:08;;;;;;;6.75;1.67;;;;;15.80;94643.00;;;;7401167;19;20152;-81
2023/07/18 05:28:41;;;;;;;6.47;1.70;;;;;16.00;94633.00;;;;7401140;19;20212;-81
2023/07/18 05:31:16;;;;;;;4.72;1.75;;;;;16.20;94634.00;;;;7400715;19;20997;-82
2023/07/18 05:33:51;;;;;;;4.55;1.52;;;;;16.30;94642.00;;;;7402913;19;20140;-81
2023/07/18 05:36:26;;;;;;;6.88;1.70;;;;;16.30;94628.00;;;;7400263;19;20145;-82
2023/07/18 05:39:03;;;;;;;2.83;1.60;;;;;16.60;94635.00;;;;7398474;19;20143;-82
2023/07/18 05:41:37;;;;;;;3.47;1.52;;;;;16.90;94623.00;;;;7401743;19;20551;-82
2023/07/18 05:44:16;;;;;;;2.85;1.70;;;;;17.00;94628.00;;;;7401942;19;20140;-82
2023/07/18 05:46:45;;;;;;;3.15;1.40;;;;;17.20;94623.00;;;;7400392;19;20178;-80
2023/07/18 05:49:20;;;;;;;3.35;1.58;;;;;17.30;94617.00;;;;7402040;19;20151;-81
2023/07/18 05:51:48;;;;;;;3.53;2.00;;;;;17.50;94617.00;;;;7400654;19;20180;-82
2023/07/18 05:54:23;;;;;;;4.15;1.50;;;;;17.60;94617.00;;;;7401132;19;20204;-79
2023/07/18 05:56:52;;;;;;;4.22;1.65;;;;;17.80;94611.00;;;;7400178;19;20141;-82
2023/07/18 05:59:20;;;;;;;4.75;1.60;;;;;17.80;94618.00;;;;7400634;19;20155;-82
2023/07/18 06:01:53;;;;;;;3.45;1.70;;;;;17.80;94610.00;;;;7400646;19;20499;-82
2023/07/18 06:04:22;;;;;;;3.92;1.83;;;;;18.00;94614.00;;;;7400454;19;20153;-80
2023/07/18 06:06:55;;;;;;;4.57;1.50;;;;;18.00;94617.00;;;;7397905;19;20139;-83
2023/07/18 06:09:24;;;;;;;2.35;1.45;;;;;18.20;94607.00;;;;7400234;19;20141;-82
2023/07/18 06:12:07;;;;;;;3.30;1.48;;;;;18.50;94606.00;;;;7401284;19;20140;-84
2023/07/18 06:14:36;;;;;;;3.70;1.55;;;;;18.50;94606.00;;;;7401080;19;20513;-80
2023/07/18 06:17:11;;;;;;;2.55;1.67;;;;;19.00;94609.00;;;;7400142;19;20596;-78
2023/07/18 06:19:38;;;;;;;4.47;1.52;;;;;19.30;94602.00;;;;7398130;19;20549;-79
2023/07/18 06:22:13;;;;;;;5.28;1.80;;;;;19.80;94603.00;;;;7399968;19;20135;-78
2023/07/18 06:24:48;;;;;;;3.72;1.50;;;;;20.30;94604.00;;;;7399806;19;20541;-80
2023/07/18 06:27:26;;;;;;;4.30;1.65;;;;;20.90;94606.00;;;;7398586;19;20149;-79
2023/07/18 06:29:54;;;;;;;4.30;1.40;;;;;21.20;94609.00;;;;7397986;19;20743;-80
2023/07/18 06:32:29;;;;;;;5.05;1.45;;;;;21.60;94608.00;;;;7400115;19;20143;-81
2023/07/18 06:34:57;;;;;;;4.65;1.75;;;;;21.60;94607.00;;;;7398829;19;20980;-80
2023/07/18 06:37:33;;;;;;;5.18;1.63;;;;;21.50;94602.00;;;;7399657;19;20151;-81
2023/07/18 06:40:10;;;;;;;2.25;1.30;;;;;21.30;94597.00;;;;7399190;19;20220;-81
2023/07/18 06:42:45;;;;;;;3.63;1.55;;;;;20.90;94597.00;;;;7397754;19;20200;-81
2023/07/18 06:45:19;;;;;;;6.05;1.98;;;;;20.80;94596.00;;;;7398435;19;20149;-80
2023/07/18 06:47:53;;;;;;;3.25;1.58;;;;;20.50;94596.00;;;;7401345;19;20604;-81
2023/07/18 06:50:29;;;;;;;4.60;1.48;;;;;20.30;94601.00;;;;7398528;19;20156;-81
2023/07/18 06:53:03;;;;;;;3.92;1.40;;;;;20.20;94595.00;;;;7398715;19;20136;-80
2023/07/18 06:55:31;;;;;;;2.95;1.55;;;;;20.00;94590.00;;;;7397980;19;20145;-80
2023/07/18 06:58:08;;;;;;;8.88;2.58;;;;;20.10;94600.00;;;;7397452;19;20467;-81
2023/07/18 07:00:46;;;;;;;3.55;1.65;;;;;20.20;94594.00;;;;7397690;19;20152;-80
2023/07/18 07:03:22;;;;;;;3.20;1.75;;;;;20.30;94596.00;;;;7397854;19;20183;-80
2023/07/18 07:05:50;;;;;;;5.25;2.75;;;;;20.40;94593.00;;;;7397384;19;20141;-80
2023/07/18 07:08:24;;;;;;;8.68;1.88;;;;;20.50;94592.00;;;;7399738;19;20192;-80
2023/07/18 07:11:12;;;;;;;3.00;1.70;;;;;20.30;94589.00;;;;7395838;19;20164;-80
2023/07/18 07:13:47;;;;;;;6.88;1.60;;;;;20.40;94589.00;;;;7399309;19;20200;-79
2023/07/18 07:16:15;;;;;;;3.22;1.52;;;;;20.50;94586.00;;;;7396414;19;20509;-78
2023/07/18 07:18:51;;;;;;;4.80;1.88;;;;;20.60;94585.00;;;;7398919;19;20133;-80
2023/07/18 07:21:28;;;;;;;2.00;1.25;;;;;20.70;94582.00;;;;7397177;19;20616;-81
2023/07/18 07:24:04;;;;;;;4.60;1.70;;;;;20.90;94572.00;;;;7399502;19;20159;-81
2023/07/18 07:26:32;;;;;;;6.30;1.90;;;;;20.90;94573.00;;;;7399255;19;20148;-85
2023/07/18 07:29:00;;;;;;;3.38;1.60;;;;;21.00;94568.00;;;;7398506;19;20125;-84
2023/07/18 07:31:37;;;;;;;3.03;1.60;;;;;21.30;94562.00;;;;7396161;19;20170;-84
2023/07/18 07:34:16;;;;;;;3.70;1.73;;;;;21.50;94569.00;;;;7397412;19;20152;-84
2023/07/18 07:36:44;;;;;;;4.68;1.60;;;;;21.60;94559.00;;;;7396850;19;20170;-85
2023/07/18 07:39:12;;;;;;;3.63;1.40;;;;;21.50;94567.00;;;;7396836;19;20137;-83
2023/07/18 07:41:46;;;;;;;4.47;1.45;;;;;21.80;94564.00;;;;7396890;19;20156;-84
2023/07/18 07:44:24;;;;;;;7.47;3.47;;;;;21.80;94554.00;;;;7394499;19;20158;-84
2023/07/18 07:46:55;;;;;;;2.30;1.30;;;;;21.90;94560.00;;;;7398530;19;20136;-81
2023/07/18 07:49:29;;;;;;;3.75;1.55;;;;;21.80;94550.00;;;;7397397;19;20476;-79
2023/07/18 07:51:57;;;;;;;2.60;1.42;;;;;21.80;94551.00;;;;7396229;19;20146;-83
2023/07/18 07:54:25;;;;;;;6.07;1.42;;;;;21.90;94551.00;;;;7398012;19;20129;-83
2023/07/18 07:57:05;;;;;;;2.17;1.23;;;;;22.10;94547.00;;;;7396624;19;20149;-81
2023/07/18 07:59:33;;;;;;;4.55;1.40;;;;;22.40;94549.00;;;;7396638;19;20152;-82
2023/07/18 08:02:03;;;;;;;3.47;1.38;;;;;22.70;94552.00;;;;7395962;19;20206;-82
2023/07/18 08:04:39;;;;;;;3.20;1.55;;;;;22.70;94547.00;;;;7396230;19;20220;-83
2023/07/18 08:07:11;;;;;;;4.93;1.70;;;;;22.60;94544.00;;;;7393433;19;20621;-83
2023/07/18 08:09:52;;;;;;;4.75;1.92;;;;;22.30;94551.00;;;;7396024;19;20164;-77
2023/07/18 08:12:20;;;;;;;3.95;1.42;;;;;22.40;94546.00;;;;7396071;19;20140;-81
2023/07/18 08:14:55;;;;;;;3.90;1.42;;;;;22.80;94536.00;;;;7398171;19;20153;-81
2023/07/18 08:17:22;;;;;;;7.18;2.35;;;;;22.90;94529.00;;;;7397949;19;20133;-82
2023/07/18 08:19:58;;;;;;;1.67;1.40;;;;;23.20;94530.00;;;;7397813;19;20140;-81
2023/07/18 08:22:36;;;;;;;2.95;1.88;;;;;23.10;94537.00;;;;7397008;19;20144;-79
2023/07/18 08:25:10;;;;;;;2.15;1.33;;;;;23.30;94538.00;;;;7397100;19;20133;-82
2023/07/18 08:27:41;;;;;;;3.85;1.90;;;;;23.30;94539.00;;;;7396732;19;20129;-79
2023/07/18 08:30:16;;;;;;;5.10;2.08;;;;;23.40;94524.00;;;;7396382;19;20141;-81
2023/07/18 08:32:50;;;;;;;4.43;1.60;;;;;23.80;94525.00;;;;7396583;19;20153;-82
2023/07/18 08:35:25;;;;;;;3.88;1.92;;;;;23.80;94539.00;;;;7394798;19;20621;-79
2023/07/18 08:37:59;;;;;;;3.03;1.70;;;;;23.60;94524.00;;;;7395135;19;20140;-81
2023/07/18 08:40:35;;;;;;;6.68;2.10;;;;;23.70;94525.00;;;;7397250;19;20172;-80
2023/07/18 08:43:14;;;;;;;2.90;1.92;;;;;23.90;94533.00;;;;7397973;19;20161;-79
2023/07/18 08:45:55;;;;;;;2.78;1.60;;;;;23.60;94525.00;;;;7401532;19;20577;-83
2023/07/18 08:48:30;;;;;;;5.10;1.95;;;;;24.00;94520.00;;;;7398830;19;20601;-82
2023/07/18 08:51:05;;;;;;;5.00;2.10;;;;;23.80;94524.00;;;;7394895;19;20489;-81
2023/07/18 08:53:40;;;;;;;3.25;1.90;;;;;23.90;94513.00;;;;7395580;19;20159;-79
2023/07/18 08:56:14;;;;;;;4.57;1.92;;;;;24.00;94515.00;;;;7399504;19;20144;-78
2023/07/18 08:58:42;;;;;;;3.58;1.77;;;;;23.80;94508.00;;;;7399644;19;20152;-81
2023/07/18 09:01:17;;;;;;;7.55;1.75;;;;;23.70;94512.00;;;;7400615;19;20612;-80
2023/07/18 09:03:52;;;;;;;3.20;2.00;;;;;24.00;94517.00;;;;7399371;19;20168;-80
2023/07/18 09:06:27;;;;;;;7.93;2.20;;;;;24.10;94511.00;;;;7402377;19;20759;-82
2023/07/18 09:08:55;;;;;;;3.42;2.30;;;;;24.80;94499.00;;;;7405296;19;20129;-82
2023/07/18 09:11:30;;;;;;;7.68;1.90;;;;;24.60;94508.00;;;;7398439;19;20164;-82
2023/07/18 09:14:06;;;;;;;4.03;2.20;;;;;24.80;94492.00;;;;7402814;19;20157;-80
2023/07/18 09:16:43;;;;;;;2.47;1.95;;;;;25.00;94491.00;;;;7406215;19;20141;-81
2023/07/18 09:19:11;;;;;;;5.30;2.00;;;;;25.00;94494.00;;;;7404054;19;20144;-81
2023/07/18 09:21:39;;;;;;;5.63;2.50;;;;;25.40;94495.00;;;;7406855;19;20537;-83
2023/07/18 09:24:13;;;;;;;2.97;2.50;;;;;25.60;94499.00;;;;7405167;19;20133;-81
2023/07/18 09:26:48;;;;;;;6.57;2.33;;;;;25.70;94495.00;;;;7404224;19;20662;-82
2023/07/18 09:29:25;;;;;;;4.18;2.53;;;;;25.80;94517.00;;;;7402921;19;20683;-78
2023/07/18 09:31:55;;;;;;;5.55;2.22;;;;;25.60;94500.00;;;;7404964;19;20133;-79
2023/07/18 09:34:30;;;;;;;10.05;2.65;;;;;26.00;94507.00;;;;7400582;19;20152;-78
2023/07/18 09:37:05;;;;;;;6.70;2.90;;;;;26.30;94507.00;;;;7403816;19;20137;-81
2023/07/18 09:39:40;;;;;;;4.03;2.72;;;;;26.70;94507.00;;;;7400628;19;20560;-78
2023/07/18 09:42:19;;;;;;;5.88;2.63;;;;;26.20;94501.00;;;;7401421;19;20140;-81
2023/07/18 09:44:55;;;;;;;4.07;2.40;;;;;25.70;94535.00;;;;7400182;19;20155;-77
2023/07/18 09:47:39;;;;;;;5.10;2.30;;;;;25.60;94570.00;;;;7402245;19;20121;-81
2023/07/18 09:50:13;;;;;;;4.78;2.80;;;;;24.70;94604.00;;;;7401172;19;20152;-78
2023/07/18 09:52:50;;;;;;;5.82;2.65;;;;;24.20;94611.00;;;;7399469;19;20704;-76
2023/07/18 09:55:27;;;;;;;4.47;2.67;;;;;23.70;94604.00;;;;7399767;19;20145;-78
2023/07/18 09:58:02;;;;;;;6.18;3.28;;;;;23.40;94595.00;;;;7399122;19;20167;-78
2023/07/18 10:00:30;;;;;;;3.63;2.75;;;;;23.50;94602.00;;;;7399852;19;20201;-79
2023/07/18 10:03:05;;;;;;;6.40;2.97;;;;;23.50;94593.00;;;;7395331;19;20562;-77
2023/07/18 10:05:33;;;;;;;3.58;2.65;;;;;23.20;94549.00;;;;7399914;19;20150;-79
2023/07/18 10:08:11;;;;;;;6.90;2.50;;;;;23.10;94534.00;;;;7398442;19;20644;-81
2023/07/18 10:11:07;;;;;;;5.65;2.15;;;;;22.90;94531.00;;;;7399370;19;20168;-80
2023/07/18 10:14:02;;;;;;;3.90;2.55;;;;;22.60;94532.00;;;;7401459;19;20138;-82
2023/07/18 10:16:42;;;;;;;5.53;2.85;;;;;22.30;94446.00;;;;7397750;19;20168;-80
2023/07/18 10:19:18;;;;;;;6.93;2.75;;;;;22.30;94326.00;;;;7397801;19;20473;-80
2023/07/18 10:21:53;;;;;;;4.30;2.63;;;;;22.20;94232.00;;;;7397987;19;20161;-83
2023/07/18 10:24:24;;;;;;;5.65;2.58;;;;;22.30;94250.00;;;;7398573;19;20125;-81
2023/07/18 10:27:00;;;;;;;8.07;2.60;;;;;22.70;94259.00;;;;7397657;19;20149;-82
2023/07/18 10:29:41;;;;;;;5.40;2.70;;;;;23.80;94273.00;;;;7399739;19;20593;-80
2023/07/18 10:32:31;;;;;;;9.45;2.78;;;;;25.30;94312.00;;;;7394195;19;20156;-81
2023/07/18 10:35:08;;;;;;;4.15;2.50;;;;;26.20;94353.00;;;;7393026;19;20293;-83
2023/07/18 10:37:54;;;;;;;3.85;2.60;;;;;26.10;94409.00;;;;7392220;19;20256;-84
2023/07/18 10:40:35;;;;;;;4.40;2.60;;;;;25.80;94457.00;;;;7392921;19;20148;-81
2023/07/18 10:43:06;;;;;;;5.70;2.88;;;;;26.00;94444.00;;;;7396279;19;20507;-81
2023/07/18 10:45:42;;;;;;;4.88;2.42;;;;;26.70;94467.00;;;;7393569;19;20152;-83
2023/07/18 10:48:19;;;;;;;9.90;2.70;;;;;27.00;94522.00;;;;7394684;19;20148;-81
2023/07/18 10:50:54;;;;;;;6.85;2.88;;;;;27.00;94554.00;;;;7392873;19;20136;-77
2023/07/18 10:53:25;;;;;;;5.10;3.00;;;;;27.00;94569.00;;;;7394029;19;20159;-78
2023/07/18 10:56:00;;;;;;;3.22;2.65;;;;;26.10;94562.00;;;;7392532;19;20145;-77
2023/07/18 10:58:29;;;;;;;4.63;2.80;;;;;26.00;94566.00;;;;7394106;19;20628;-78
2023/07/18 11:01:04;;;;;;;3.03;2.53;;;;;25.50;94578.00;;;;7389048;19;20158;-81
2023/07/18 11:03:47;;;;;;;10.90;2.92;;;;;24.70;94562.00;;;;7392766;19;20611;-76
2023/07/18 11:06:23;;;;;;;3.35;2.60;;;;;23.80;94553.00;;;;7391759;19;20184;-77
2023/07/18 11:08:51;;;;;;;5.03;2.90;;;;;23.60;94562.00;;;;7392367;19;20147;-78
2023/07/18 11:11:36;;;;;;;6.68;2.47;;;;;23.30;94560.00;;;;7390910;19;20159;-77
2023/07/18 11:14:10;;;;;;;3.97;2.60;;;;;22.90;94552.00;;;;7392443;19;20141;-77
2023/07/18 11:16:38;;;;;;;5.82;2.90;;;;;22.60;94569.00;;;;7393267;19;20490;-79
2023/07/18 11:19:13;;;;;;;6.10;2.92;;;;;22.50;94545.00;;;;7389331;19;20140;-81
2023/07/18 11:21:42;;;;;;;2.90;2.53;;;;;22.50;94555.00;;;;7392074;19;20581;-77
2023/07/18 11:24:17;;;;;;;4.75;2.70;;;;;22.20;94591.00;;;;7391081;19;20496;-78
2023/07/18 11:26:44;;;;;;;4.35;2.63;;;;;21.70;94585.00;;;;7393619;19;20145;-78
2023/07/18 11:29:25;;;;;;;6.25;2.75;;;;;21.50;94556.00;;;;7393619;19;20137;-77
2023/07/18 11:31:53;;;;;;;5.32;3.03;;;;;21.20;94553.00;;;;7391293;19;20145;-78
2023/07/18 11:34:29;;;;;;;3.88;2.67;;;;;21.40;94509.00;;;;7394484;19;20526;-81
2023/07/18 11:36:57;;;;;;;8.65;2.75;;;;;21.50;94479.00;;;;7392202;19;20169;-80
2023/07/18 11:39:32;;;;;;;5.15;2.28;;;;;22.00;94491.00;;;;7391787;19;20155;-79
2023/07/18 11:42:08;;;;;;;3.67;2.55;;;;;22.30;94486.00;;;;7392299;19;20145;-78
2023/07/18 11:44:43;;;;;;;4.90;2.38;;;;;22.60;94457.00;;;;7391966;19;20671;-80
2023/07/18 11:47:12;;;;;;;3.15;2.20;;;;;22.90;94437.00;;;;7392491;19;20166;-80
2023/07/18 11:49:42;;;;;;;2.58;2.35;;;;;23.30;94418.00;;;;7394615;19;20137;-81
2023/07/18 11:52:19;;;;;;;3.97;2.33;;;;;23.70;94374.00;;;;7392194;19;20139;-80
2023/07/18 11:54:54;;;;;;;3.28;2.60;;;;;24.00;94363.00;;;;7390832;19;20159;-80
2023/07/18 11:57:23;;;;;;;3.47;2.45;;;;;23.90;94348.00;;;;7390985;19;20634;-79
2023/07/18 11:59:57;;;;;;;5.05;2.63;;;;;24.20;94346.00;;;;7389354;19;20132;-80
2023/07/18 12:02:24;;;;;;;3.53;2.40;;;;;24.30;94356.00;;;;7387130;19;21100;-80
2023/07/18 12:05:00;;;;;;;6.00;3.05;;;;;24.20;94329.00;;;;7391265;19;20144;-79
2023/07/18 12:07:28;;;;;;;4.80;2.67;;;;;24.10;94327.00;;;;7390925;19;20129;-76
2023/07/18 12:10:11;;;;;;;7.38;2.90;;;;;23.70;94309.00;;;;7391280;19;20146;-75
2023/07/18 12:12:47;;;;;;;6.15;2.83;;;;;24.20;94303.00;;;;7392184;19;20124;-76
2023/07/18 12:15:23;;;;;;;4.15;2.58;;;;;24.80;94295.00;;;;7392077;19;20244;-79
2023/07/18 12:17:58;;;;;;;6.95;2.65;;;;;25.00;94304.00;;;;7390245;19;20151;-76
2023/07/18 12:20:26;;;;;;;3.92;2.70;;;;;24.70;94294.00;;;;7385110;19;20169;-76
2023/07/18 12:23:00;;;;;;;4.43;2.45;;;;;24.50;94302.00;;;;7390035;19;20495;-77
2023/07/18 12:25:38;;;;;;;4.97;3.10;;;;;24.90;94304.00;;;;7390877;19;20186;-76
2023/07/18 12:28:06;;;;;;;4.57;3.17;;;;;25.10;94315.00;;;;7389396;19;20149;-76
2023/07/18 12:30:41;;;;;;;4.93;2.70;;;;;25.50;94310.00;;;;7393975;19;20584;-77
2023/07/18 12:33:09;;;;;;;5.30;2.83;;;;;26.10;94329.00;;;;7397405;19;20178;-76
2023/07/18 12:35:44;;;;;;;4.88;2.80;;;;;26.10;94320.00;;;;7396810;19;20144;-75
2023/07/18 12:38:11;;;;;;;6.03;2.60;;;;;26.50;94322.00;;;;7396927;19;20148;-78
2023/07/18 12:40:39;;;;;;;6.90;3.10;;;;;27.60;94322.00;;;;7395428;19;20617;-74
2023/07/18 12:43:13;;;;;;;5.28;2.75;;;;;28.20;94323.00;;;;7395430;19;20464;-75
2023/07/18 12:45:48;;;;;;;5.32;2.67;;;;;27.80;94325.00;;;;7397811;19;20136;-78
2023/07/18 12:48:22;;;;;;;3.78;2.83;;;;;27.30;94326.00;;;;7395712;19;20147;-77
2023/07/18 12:50:58;;;;;;;8.68;3.08;;;;;26.30;94316.00;;;;7397344;19;20136;-78